createdAt,value
2019-01-31T00:01:32.233Z,22.37
2019-01-31T00:04:30.051Z,21.83
2019-01-31T00:07:28.928Z,22.37
2019-01-31T00:10:09.336Z,22.50
2019-01-31T00:13:13.071Z,22.77
2019-01-31T00:16:31.816Z,21.67
2019-01-31T00:19:26.979Z,20.97
2019-01-31T00:22:44.827Z,22.00
2019-01-31T00:25:44.397Z,21.40
2019-01-31T00:28:42.222Z,20.53
2019-01-31T00:31:40.732Z,22.37
2019-01-31T00:34:43.925Z,23.23
2019-01-31T00:37:45.306Z,22.10
2019-01-31T00:40:42.263Z,22.37
2019-01-31T00:43:52.063Z,21.30
2019-01-31T00:46:54.126Z,21.83
2019-01-31T00:50:17.899Z,21.57
2019-01-31T00:53:28.564Z,22.63
2019-01-31T00:56:28.729Z,22.00
2019-01-31T00:59:23.275Z,24.17
2019-01-31T01:02:25.578Z,23.33
2019-01-31T01:05:39.132Z,22.10
2019-01-31T01:08:36.321Z,22.37
2019-01-31T01:11:43.485Z,20.47
2019-01-31T01:14:53.423Z,21.60
2019-01-31T01:17:52.809Z,23.43
2019-01-31T01:20:57.495Z,23.67
2019-01-31T01:23:33.553Z,24.17
2019-01-31T01:26:43.522Z,24.27
2019-01-31T01:29:44.034Z,22.87
2019-01-31T01:32:29.146Z,25.10
2019-01-31T01:35:26.904Z,25.23
2019-01-31T01:38:59.360Z,25.50
2019-01-31T01:42:18.276Z,24.90
2019-01-31T01:45:29.205Z,22.87
2019-01-31T01:48:33.364Z,22.87
2019-01-31T01:51:31.345Z,22.93
2019-01-31T01:54:27.623Z,24.33
2019-01-31T01:57:18.765Z,22.80
2019-01-31T02:00:27.390Z,22.80
2019-01-31T02:03:50.167Z,24.60
2019-01-31T02:06:33.615Z,21.97
2019-01-31T02:09:44.846Z,23.13
2019-01-31T02:12:55.267Z,22.07
2019-01-31T02:15:49.677Z,23.87
2019-01-31T02:18:34.843Z,23.13
2019-01-31T02:21:38.482Z,21.30
2019-01-31T02:24:25.420Z,23.83
2019-01-31T02:27:22.213Z,23.53
2019-01-31T02:30:36.567Z,23.27
2019-01-31T02:33:33.884Z,23.17
2019-01-31T02:36:41.420Z,23.07
2019-01-31T02:39:43.146Z,22.77
2019-01-31T02:42:52.944Z,25.30
2019-01-31T02:46:01.156Z,21.70
2019-01-31T02:48:58.942Z,22.13
2019-01-31T02:52:28.132Z,22.90
2019-01-31T02:55:23.699Z,22.00
2019-01-31T02:58:43.356Z,24.23
2019-01-31T03:01:53.065Z,22.70
2019-01-31T03:05:16.133Z,24.00
2019-01-31T03:08:35.292Z,25.20
2019-01-31T03:11:14.844Z,23.50
2019-01-31T03:14:14.524Z,24.10
2019-01-31T03:17:50.294Z,23.53
2019-01-31T03:21:10.892Z,23.13
2019-01-31T03:24:29.069Z,23.20
2019-01-31T03:27:28.438Z,24.13
2019-01-31T03:30:38.697Z,24.97
2019-01-31T03:33:22.798Z,22.27
2019-01-31T03:36:29.974Z,25.47
2019-01-31T03:39:40.281Z,21.93
2019-01-31T03:42:44.075Z,21.03
2019-01-31T03:45:39.297Z,25.47
2019-01-31T03:48:44.060Z,24.83
2019-01-31T03:52:03.122Z,21.90
2019-01-31T03:54:51.984Z,25.83
2019-01-31T03:57:57.500Z,23.93
2019-01-31T04:01:20.765Z,23.37
2019-01-31T04:04:02.719Z,20.23
2019-01-31T04:06:35.963Z,26.47
2019-01-31T04:09:10.955Z,25.27
2019-01-31T04:11:41.189Z,24.93
2019-01-31T04:14:11.518Z,25.27
2019-01-31T04:16:41.873Z,24.77
2019-01-31T04:19:13.663Z,23.87
2019-01-31T04:21:43.989Z,24.10
2019-01-31T04:24:15.788Z,24.83
2019-01-31T04:26:47.446Z,25.10
2019-01-31T04:29:19.700Z,25.80
2019-01-31T04:31:50.992Z,25.77
2019-01-31T04:34:22.304Z,24.57
2019-01-31T04:36:52.618Z,25.10
2019-01-31T04:39:22.888Z,27.00
2019-01-31T04:41:53.180Z,25.20
2019-01-31T04:44:24.955Z,26.53
2019-01-31T04:46:56.578Z,25.20
2019-01-31T04:49:27.263Z,26.13
2019-01-31T04:51:57.536Z,24.13
2019-01-31T04:54:27.798Z,24.30
2019-01-31T04:56:59.362Z,24.07
2019-01-31T04:59:29.666Z,23.40
2019-01-31T05:02:02.303Z,26.10
2019-01-31T05:04:33.044Z,25.27
2019-01-31T05:07:04.468Z,24.00
2019-01-31T05:09:36.468Z,23.63
2019-01-31T05:12:06.903Z,25.93
2019-01-31T05:14:37.260Z,24.97
2019-01-31T05:17:07.542Z,26.17
2019-01-31T05:19:39.467Z,29.27
2019-01-31T05:22:09.846Z,28.07
2019-01-31T05:24:40.149Z,27.47
2019-01-31T05:27:15.468Z,30.77
2019-01-31T05:29:45.848Z,27.50
2019-01-31T05:32:16.266Z,32.17
2019-01-31T05:34:46.682Z,27.63
2019-01-31T05:37:16.995Z,29.30
2019-01-31T05:39:47.270Z,28.10
2019-01-31T05:42:17.668Z,28.97
2019-01-31T05:44:48.303Z,23.17
2019-01-31T05:47:20.396Z,25.03
2019-01-31T05:49:50.708Z,26.33
2019-01-31T05:52:21.509Z,25.40
2019-01-31T05:54:51.754Z,28.33
2019-01-31T05:57:22.106Z,27.30
2019-01-31T05:59:52.810Z,26.03
2019-01-31T06:02:23.820Z,27.40
2019-01-31T06:04:54.062Z,27.57
2019-01-31T06:07:26.793Z,28.97
2019-01-31T06:09:57.330Z,26.33
2019-01-31T06:12:27.928Z,31.43
2019-01-31T06:14:58.298Z,28.83
2019-01-31T06:17:28.880Z,30.17
2019-01-31T06:19:59.183Z,28.43
2019-01-31T06:22:29.633Z,26.47
2019-01-31T06:25:00.017Z,27.47
2019-01-31T06:27:30.732Z,26.83
2019-01-31T06:30:03.898Z,26.27
2019-01-31T06:32:35.659Z,25.73
2019-01-31T06:35:08.384Z,28.07
2019-01-31T06:37:38.690Z,29.43
2019-01-31T06:40:11.642Z,28.50
2019-01-31T06:42:41.923Z,29.83
2019-01-31T06:45:15.218Z,27.57
2019-01-31T06:47:45.743Z,30.07
2019-01-31T06:50:16.539Z,28.90
2019-01-31T06:52:47.013Z,26.60
2019-01-31T06:55:17.862Z,27.17
2019-01-31T06:57:48.492Z,27.17
2019-01-31T07:00:22.474Z,26.27
2019-01-31T07:02:52.750Z,25.30
2019-01-31T07:05:23.032Z,27.17
2019-01-31T07:07:53.353Z,27.93
2019-01-31T07:10:26.363Z,28.37
2019-01-31T07:12:56.671Z,30.17
2019-01-31T07:15:27.607Z,26.97
2019-01-31T07:17:59.289Z,27.90
2019-01-31T07:20:34.396Z,28.60
2019-01-31T07:23:05.803Z,27.60
2019-01-31T07:25:36.278Z,28.97
2019-01-31T07:28:21.462Z,27.97
2019-01-31T07:30:52.229Z,29.37
2019-01-31T07:33:22.624Z,28.17
2019-01-31T07:35:52.909Z,25.80
2019-01-31T07:38:23.186Z,23.90
2019-01-31T07:40:53.456Z,26.47
2019-01-31T07:43:23.968Z,28.70
2019-01-31T07:45:54.203Z,28.53
2019-01-31T07:48:24.541Z,27.23
2019-01-31T07:50:54.982Z,28.03
2019-01-31T07:53:25.239Z,29.00
2019-01-31T07:55:55.493Z,30.07
2019-01-31T07:58:25.795Z,28.07
2019-01-31T08:01:03.326Z,27.37
2019-01-31T08:03:40.822Z,29.93
2019-01-31T08:06:18.166Z,29.77
2019-01-31T08:08:52.700Z,28.43
2019-01-31T08:11:23.774Z,28.40
2019-01-31T08:14:01.798Z,28.40
2019-01-31T08:16:39.742Z,29.20
2019-01-31T08:19:13.763Z,28.23
2019-01-31T08:21:46.339Z,25.93
2019-01-31T08:24:16.760Z,26.07
2019-01-31T08:26:50.414Z,27.47
2019-01-31T08:29:20.946Z,26.97
2019-01-31T08:31:51.388Z,27.67
2019-01-31T08:34:23.220Z,28.00
2019-01-31T08:36:53.521Z,28.73
2019-01-31T08:39:23.954Z,29.07
2019-01-31T08:42:03.497Z,28.57
2019-01-31T08:44:26.348Z,27.83
2019-01-31T08:46:56.751Z,30.30
2019-01-31T08:49:28.335Z,29.00
2019-01-31T08:51:58.582Z,29.57
2019-01-31T08:54:28.879Z,26.77
2019-01-31T08:57:01.459Z,26.37
2019-01-31T08:59:34.752Z,25.60
2019-01-31T09:02:05.193Z,27.27
2019-01-31T09:04:35.966Z,28.20
2019-01-31T09:07:06.315Z,26.73
2019-01-31T09:09:36.792Z,25.60
2019-01-31T09:12:14.948Z,26.97
2019-01-31T09:14:39.643Z,26.80
2019-01-31T09:17:10.100Z,24.67
2019-01-31T09:19:40.339Z,25.43
2019-01-31T09:22:34.689Z,26.27
2019-01-31T09:25:32.061Z,25.77
2019-01-31T09:28:46.233Z,24.10
2019-01-31T09:32:05.101Z,23.83
2019-01-31T09:35:22.092Z,24.37
2019-01-31T09:38:35.517Z,23.00
2019-01-31T09:41:29.927Z,22.67
2019-01-31T09:44:35.712Z,22.37
2019-01-31T09:48:07.877Z,21.80
2019-01-31T09:51:26.434Z,23.57
2019-01-31T09:54:31.390Z,23.87
2019-01-31T09:57:26.287Z,21.03
2019-01-31T10:00:47.564Z,20.33
2019-01-31T10:04:02.731Z,22.13
2019-01-31T10:07:06.102Z,21.70
2019-01-31T10:10:05.737Z,22.43
2019-01-31T10:13:13.364Z,21.70
2019-01-31T10:16:24.739Z,22.77
2019-01-31T10:19:16.967Z,22.53
2019-01-31T10:22:34.283Z,24.17
2019-01-31T10:25:46.990Z,23.30
2019-01-31T10:28:54.101Z,23.97
2019-01-31T10:31:51.043Z,24.87
2019-01-31T10:34:34.048Z,24.13
2019-01-31T10:37:30.415Z,23.23
2019-01-31T10:40:16.132Z,24.33
2019-01-31T10:43:24.745Z,23.30
2019-01-31T10:46:08.260Z,23.27
2019-01-31T10:49:00.503Z,23.67
2019-01-31T10:52:10.532Z,24.90
2019-01-31T10:55:22.880Z,25.60
2019-01-31T10:58:36.303Z,23.10
2019-01-31T11:02:03.234Z,23.67
2019-01-31T11:05:04.058Z,22.97
2019-01-31T11:08:12.834Z,23.50
2019-01-31T11:11:15.491Z,21.83
2019-01-31T11:14:29.942Z,19.50
2019-01-31T11:17:54.303Z,21.07
2019-01-31T11:21:12.742Z,21.67
2019-01-31T11:24:22.105Z,22.03
2019-01-31T11:27:44.203Z,19.37
2019-01-31T11:30:39.671Z,21.67
2019-01-31T11:34:00.243Z,21.37
2019-01-31T11:36:49.493Z,21.03
2019-01-31T11:39:56.615Z,21.63
2019-01-31T11:42:55.843Z,18.57
2019-01-31T11:46:10.924Z,18.47
2019-01-31T11:49:21.555Z,19.30
2019-01-31T11:52:51.004Z,20.97
2019-01-31T11:55:27.584Z,20.67
2019-01-31T11:58:24.255Z,18.93
2019-01-31T12:00:54.501Z,19.33
2019-01-31T12:03:25.168Z,17.60
2019-01-31T12:05:56.948Z,17.67
2019-01-31T12:08:28.449Z,18.97
2019-01-31T12:10:58.722Z,17.93
2019-01-31T12:13:29.502Z,17.47
2019-01-31T12:16:00.151Z,18.53
2019-01-31T12:18:31.618Z,18.37
2019-01-31T12:21:01.868Z,18.40
2019-01-31T12:23:32.524Z,19.73
2019-01-31T12:26:06.190Z,17.40
2019-01-31T12:28:36.613Z,16.30
2019-01-31T12:31:06.982Z,18.03
2019-01-31T12:33:37.308Z,18.50
2019-01-31T12:36:08.729Z,16.20
2019-01-31T12:38:41.337Z,16.90
2019-01-31T12:41:11.809Z,16.00
2019-01-31T12:43:44.253Z,17.07
2019-01-31T12:46:14.820Z,18.00
2019-01-31T12:48:45.213Z,17.87
2019-01-31T12:51:15.487Z,15.57
2019-01-31T12:53:45.866Z,16.60
2019-01-31T12:56:16.087Z,17.17
2019-01-31T12:58:46.352Z,17.27
2019-01-31T13:01:16.522Z,14.93
2019-01-31T13:03:47.574Z,15.43
2019-01-31T13:06:18.273Z,15.80
2019-01-31T13:08:48.823Z,15.43
2019-01-31T13:11:19.500Z,15.63
2019-01-31T13:13:50.451Z,16.63
2019-01-31T13:16:20.933Z,15.00
2019-01-31T13:18:51.301Z,12.17
2019-01-31T13:21:21.541Z,12.80
2019-01-31T13:23:53.276Z,12.83
2019-01-31T13:26:23.730Z,11.87
2019-01-31T13:28:54.235Z,11.67
2019-01-31T13:31:24.571Z,11.33
2019-01-31T13:33:55.114Z,11.70
2019-01-31T13:36:25.693Z,11.50
2019-01-31T13:38:56.135Z,11.10
2019-01-31T13:41:26.450Z,12.23
2019-01-31T13:43:57.881Z,11.03
2019-01-31T13:46:28.302Z,11.20
2019-01-31T13:48:59.098Z,10.73
2019-01-31T13:51:29.653Z,12.00
2019-01-31T13:54:00.022Z,11.63
2019-01-31T13:56:30.245Z,11.20
2019-01-31T13:59:00.591Z,11.30
2019-01-31T14:01:30.902Z,11.67
2019-01-31T14:04:01.293Z,11.80
2019-01-31T14:06:31.496Z,11.67
2019-01-31T14:09:02.003Z,11.60
2019-01-31T14:11:32.335Z,10.97
2019-01-31T14:14:09.206Z,11.80
2019-01-31T14:16:35.023Z,9.97
2019-01-31T14:19:05.245Z,9.67
2019-01-31T14:21:35.428Z,11.03
2019-01-31T14:24:06.305Z,9.27
2019-01-31T14:26:36.542Z,10.37
2019-01-31T14:29:07.379Z,12.50
2019-01-31T14:31:39.452Z,13.40
2019-01-31T14:34:09.736Z,13.27
2019-01-31T14:36:40.012Z,13.33
2019-01-31T14:39:11.218Z,14.93
2019-01-31T14:41:42.837Z,14.67
2019-01-31T14:44:20.610Z,14.43
2019-01-31T14:46:45.862Z,14.43
2019-01-31T14:49:16.645Z,14.43
2019-01-31T14:51:46.979Z,15.57
2019-01-31T14:54:17.452Z,16.37
2019-01-31T14:56:47.653Z,15.03
2019-01-31T14:59:18.221Z,16.07
2019-01-31T15:01:51.247Z,15.70
2019-01-31T15:04:21.837Z,17.80
2019-01-31T15:06:52.244Z,15.53
2019-01-31T15:09:22.864Z,17.30
2019-01-31T15:11:53.425Z,16.43
2019-01-31T15:14:31.592Z,18.17
2019-01-31T15:16:56.184Z,16.50
2019-01-31T15:19:26.459Z,15.40
2019-01-31T15:21:56.881Z,17.33
2019-01-31T15:24:28.709Z,16.23
2019-01-31T15:26:59.031Z,16.77
2019-01-31T15:29:30.442Z,16.13
2019-01-31T15:32:03.217Z,15.70
2019-01-31T15:34:33.501Z,14.87
2019-01-31T15:37:03.820Z,14.50
2019-01-31T15:39:34.225Z,14.90
2019-01-31T15:42:04.450Z,14.33
2019-01-31T15:44:43.077Z,12.83
2019-01-31T15:47:06.724Z,13.57
2019-01-31T15:49:37.623Z,12.70
2019-01-31T15:52:08.293Z,12.37
2019-01-31T15:54:39.488Z,12.50
2019-01-31T15:57:16.318Z,13.20
2019-01-31T15:59:42.054Z,13.20
2019-01-31T16:02:14.700Z,13.67
2019-01-31T16:04:45.058Z,12.10
2019-01-31T16:07:15.371Z,13.63
2019-01-31T16:09:45.618Z,12.43
2019-01-31T16:12:16.296Z,13.17
2019-01-31T16:14:54.513Z,13.00
2019-01-31T16:17:18.957Z,12.60
2019-01-31T16:19:49.156Z,12.77
2019-01-31T16:22:20.981Z,12.20
2019-01-31T16:24:51.331Z,13.10
2019-01-31T16:27:21.535Z,13.80
2019-01-31T16:29:52.044Z,13.93
2019-01-31T16:32:23.419Z,12.93
2019-01-31T16:34:53.681Z,14.97
2019-01-31T16:37:25.387Z,15.53
2019-01-31T16:39:55.776Z,12.20
2019-01-31T16:42:26.061Z,14.57
2019-01-31T16:45:06.331Z,15.97
2019-01-31T16:47:28.531Z,16.90
2019-01-31T16:49:58.776Z,17.83
2019-01-31T16:52:29.007Z,14.93
2019-01-31T16:55:00.692Z,15.63
2019-01-31T16:57:33.208Z,16.60
2019-01-31T17:00:04.661Z,17.63
2019-01-31T17:02:35.157Z,15.67
2019-01-31T17:05:06.328Z,16.43
2019-01-31T17:07:37.804Z,13.77
2019-01-31T17:10:08.433Z,17.07
2019-01-31T17:12:38.661Z,13.30
2019-01-31T17:15:17.683Z,14.70
2019-01-31T17:17:42.042Z,17.77
2019-01-31T17:20:19.190Z,20.63
2019-01-31T17:22:50.533Z,19.33
2019-01-31T17:25:21.310Z,18.40
2019-01-31T17:27:51.693Z,16.10
2019-01-31T17:30:24.625Z,16.13
2019-01-31T17:32:55.068Z,13.90
2019-01-31T17:35:25.711Z,15.00
2019-01-31T17:37:56.023Z,16.33
2019-01-31T17:40:29.964Z,15.17
2019-01-31T17:43:00.182Z,16.10
2019-01-31T17:45:31.073Z,17.23
2019-01-31T17:48:01.786Z,17.33
2019-01-31T17:50:32.011Z,16.93
2019-01-31T17:53:02.255Z,16.50
2019-01-31T17:55:32.721Z,14.27
2019-01-31T17:58:02.944Z,16.60
2019-01-31T18:00:53.924Z,17.13
2019-01-31T18:03:25.289Z,16.43
2019-01-31T18:05:55.628Z,19.80
2019-01-31T18:08:27.121Z,16.47
2019-01-31T18:10:57.649Z,20.00
2019-01-31T18:13:27.992Z,20.93
2019-01-31T18:15:58.432Z,23.17
2019-01-31T18:18:29.215Z,24.80
2019-01-31T18:20:59.678Z,22.90
2019-01-31T18:23:29.915Z,24.17
2019-01-31T18:26:00.337Z,24.20
2019-01-31T18:28:30.575Z,26.23
2019-01-31T18:31:00.916Z,24.53
2019-01-31T18:33:31.201Z,26.13
2019-01-31T18:36:01.562Z,26.63
2019-01-31T18:38:31.736Z,27.90
2019-01-31T18:41:02.258Z,26.63
2019-01-31T18:43:32.733Z,25.93
2019-01-31T18:46:03.095Z,27.33
2019-01-31T18:48:33.394Z,23.53
2019-01-31T18:51:03.805Z,26.63
2019-01-31T18:53:34.170Z,28.50
2019-01-31T18:56:05.017Z,22.53
2019-01-31T18:58:35.595Z,27.43
2019-01-31T19:01:06.383Z,26.97
2019-01-31T19:03:36.775Z,28.10
2019-01-31T19:06:07.196Z,27.47
2019-01-31T19:08:37.666Z,28.40
2019-01-31T19:11:07.876Z,24.67
2019-01-31T19:13:38.293Z,27.63
2019-01-31T19:16:09.129Z,27.63
2019-01-31T19:18:39.670Z,25.63
2019-01-31T19:21:11.284Z,24.43
2019-01-31T19:23:41.944Z,25.67
2019-01-31T19:26:12.272Z,21.53
2019-01-31T19:28:42.536Z,27.10
2019-01-31T19:31:13.055Z,25.97
2019-01-31T19:33:44.538Z,26.47
2019-01-31T19:36:14.865Z,27.83
2019-01-31T19:38:45.080Z,27.77
2019-01-31T19:41:15.280Z,29.20
2019-01-31T19:43:45.504Z,28.40
2019-01-31T19:46:17.391Z,29.03
2019-01-31T19:48:48.027Z,28.63
2019-01-31T19:51:19.151Z,28.37
2019-01-31T19:53:49.467Z,24.93
2019-01-31T19:56:19.787Z,27.83
2019-01-31T19:58:50.224Z,28.73
2019-01-31T20:01:20.454Z,28.40
2019-01-31T20:03:50.695Z,28.27
2019-01-31T20:06:21.460Z,30.03
2019-01-31T20:08:53.727Z,29.13
2019-01-31T20:11:25.198Z,28.00
2019-01-31T20:13:55.416Z,26.73
2019-01-31T20:16:29.064Z,27.47
2019-01-31T20:18:57.711Z,25.30
2019-01-31T20:21:28.209Z,28.70
2019-01-31T20:23:58.882Z,25.73
2019-01-31T20:26:29.164Z,25.37
2019-01-31T20:28:59.464Z,27.37
2019-01-31T20:31:30.142Z,26.17
2019-01-31T20:34:00.397Z,28.57
2019-01-31T20:36:30.579Z,29.50
2019-01-31T20:39:00.904Z,26.87
2019-01-31T20:41:32.116Z,28.50
2019-01-31T20:44:02.423Z,29.57
2019-01-31T20:46:40.040Z,27.73
2019-01-31T20:49:06.004Z,26.10
2019-01-31T20:51:36.257Z,32.00
2019-01-31T20:54:06.758Z,27.67
2019-01-31T20:56:37.264Z,27.80
2019-01-31T20:59:07.456Z,31.30
2019-01-31T21:01:37.853Z,28.23
2019-01-31T21:04:08.156Z,24.90
2019-01-31T21:06:41.542Z,23.80
2019-01-31T21:09:11.905Z,24.20
2019-01-31T21:11:42.483Z,24.47
2019-01-31T21:14:12.731Z,26.77
2019-01-31T21:16:51.224Z,28.57
2019-01-31T21:19:15.376Z,22.77
2019-01-31T21:21:45.676Z,26.83
2019-01-31T21:24:16.128Z,26.17
2019-01-31T21:26:46.469Z,29.67
2019-01-31T21:29:16.705Z,28.40
2019-01-31T21:31:48.338Z,26.13
2019-01-31T21:34:18.549Z,24.13
2019-01-31T21:36:48.878Z,27.70
2019-01-31T21:39:19.139Z,27.40
2019-01-31T21:41:49.356Z,26.57
2019-01-31T21:44:19.641Z,22.53
2019-01-31T21:46:49.991Z,23.27
2019-01-31T21:49:21.475Z,24.00
2019-01-31T21:51:51.766Z,25.87
2019-01-31T21:54:23.657Z,25.87
2019-01-31T21:56:53.929Z,27.23
2019-01-31T21:59:24.162Z,25.93
2019-01-31T22:01:54.357Z,25.27
2019-01-31T22:04:24.574Z,25.40
2019-01-31T22:06:54.800Z,27.97
2019-01-31T22:09:25.055Z,26.13
2019-01-31T22:11:55.241Z,27.73
2019-01-31T22:14:25.464Z,24.73
2019-01-31T22:16:55.687Z,25.13
2019-01-31T22:19:26.148Z,24.20
2019-01-31T22:21:56.388Z,24.93
2019-01-31T22:24:26.587Z,25.60
2019-01-31T22:26:56.813Z,24.33
2019-01-31T22:29:27.004Z,22.67
2019-01-31T22:31:57.223Z,25.93
2019-01-31T22:34:27.695Z,23.63
2019-01-31T22:36:57.937Z,26.40
2019-01-31T22:39:28.119Z,25.47
2019-01-31T22:41:58.379Z,24.50
2019-01-31T22:44:28.559Z,23.90
2019-01-31T22:46:58.770Z,21.97
2019-01-31T22:49:29.075Z,24.43
2019-01-31T22:51:59.335Z,24.33
2019-01-31T22:54:29.554Z,21.57
2019-01-31T22:56:59.758Z,22.73
2019-01-31T22:59:29.969Z,23.63
2019-01-31T23:02:05.909Z,20.00
2019-01-31T23:04:36.169Z,22.80
2019-01-31T23:07:06.473Z,21.30
2019-01-31T23:09:36.663Z,23.23
2019-01-31T23:12:07.041Z,23.57
2019-01-31T23:14:37.272Z,23.33
2019-01-31T23:17:07.536Z,22.73
2019-01-31T23:19:37.987Z,23.77
2019-01-31T23:22:08.145Z,23.30
2019-01-31T23:24:38.339Z,21.70
2019-01-31T23:27:08.640Z,23.87
2019-01-31T23:29:38.870Z,20.83
2019-01-31T23:32:09.180Z,19.13
2019-01-31T23:34:39.368Z,21.93
2019-01-31T23:37:09.636Z,22.33
2019-01-31T23:39:39.841Z,22.57
2019-01-31T23:42:10.050Z,22.63
2019-01-31T23:44:40.247Z,23.00
2019-01-31T23:47:10.658Z,23.67
2019-01-31T23:49:40.932Z,21.13
2019-01-31T23:52:11.643Z,20.73
2019-01-31T23:54:41.928Z,20.33
2019-01-31T23:57:12.094Z,24.50
2019-01-31T23:59:42.254Z,23.40
